Time;durP1;ratioP1;P1;durP2;ratioP2;P2;SDS_P1;SDS_P2;PMS_P1;PMS_P2;Temp;Humidity;BMP_temperature;BMP_pressure;BME280_temperature;BME280_humidity;BME280_pressure;Samples;Min_cycle;Max_cycle;Signal;HPM_P1;HPM_P2
2021/06/01 00:00:29;;;;;;;5.20;3.60;;;13.60;63.40;;;;;;5037186;28;20185;-75
2021/06/01 00:02:55;;;;;;;6.73;4.10;;;13.50;63.70;;;;;;5044541;28;20476;-76
2021/06/01 00:05:20;;;;;;;5.00;3.50;;;13.50;63.80;;;;;;5037491;28;20428;-76
2021/06/01 00:07:46;;;;;;;8.13;3.87;;;13.50;64.10;;;;;;5037772;28;20201;-74
2021/06/01 00:10:13;;;;;;;5.37;3.30;;;13.50;63.90;;;;;;5043139;28;20189;-75
2021/06/01 00:12:39;;;;;;;5.53;3.73;;;13.40;64.20;;;;;;5045089;28;20227;-74
2021/06/01 00:15:07;;;;;;;5.27;3.23;;;13.40;64.10;;;;;;5039314;28;20433;-74
2021/06/01 00:17:33;;;;;;;5.00;3.53;;;13.40;64.20;;;;;;5038466;28;20520;-74
2021/06/01 00:19:58;;;;;;;6.93;3.70;;;13.30;64.40;;;;;;5049563;28;20608;-75
2021/06/01 00:22:24;;;;;;;5.80;3.90;;;13.30;64.40;;;;;;5037885;28;20501;-75
2021/06/01 00:24:50;;;;;;;6.63;3.63;;;13.30;64.80;;;;;;5041573;28;20185;-75
2021/06/01 00:27:16;;;;;;;6.70;3.70;;;13.30;65.40;;;;;;5032492;28;20209;-77
2021/06/01 00:29:41;;;;;;;6.60;3.30;;;13.20;65.40;;;;;;5042339;28;20857;-77
2021/06/01 00:32:07;;;;;;;4.47;3.50;;;13.20;65.40;;;;;;5030156;28;20205;-74
2021/06/01 00:34:33;;;;;;;5.83;3.53;;;13.10;65.70;;;;;;5031010;28;20189;-75
2021/06/01 00:36:59;;;;;;;5.00;3.93;;;13.10;66.30;;;;;;5030155;28;21104;-74
2021/06/01 00:39:24;;;;;;;5.60;3.50;;;13.00;66.60;;;;;;5028029;28;20184;-76
2021/06/01 00:41:50;;;;;;;8.93;4.30;;;12.90;67.00;;;;;;5048724;28;20226;-76
2021/06/01 00:44:16;;;;;;;4.80;3.37;;;12.80;67.50;;;;;;5030485;28;20185;-77
2021/06/01 00:46:41;;;;;;;6.83;4.03;;;12.80;67.60;;;;;;5043761;28;20209;-77
2021/06/01 00:49:07;;;;;;;5.57;4.30;;;12.70;67.70;;;;;;5028847;28;20193;-77
2021/06/01 00:51:33;;;;;;;9.13;4.20;;;12.60;69.80;;;;;;5031091;28;20188;-74
2021/06/01 00:54:01;;;;;;;5.20;3.80;;;12.60;69.70;;;;;;5024355;28;20180;-77
2021/06/01 00:56:27;;;;;;;5.90;3.50;;;12.60;69.70;;;;;;5037038;28;20201;-77
2021/06/01 00:58:52;;;;;;;4.87;3.43;;;12.50;69.70;;;;;;5036106;28;20533;-75
2021/06/01 01:01:21;;;;;;;5.70;3.70;;;12.50;69.70;;;;;;5030481;28;20603;-77
2021/06/01 01:03:48;;;;;;;6.20;3.90;;;12.40;69.50;;;;;;5051760;28;20231;-76
2021/06/01 01:06:33;;;;;;;6.77;4.20;;;12.30;70.10;;;;;;5037049;28;20420;-74
2021/06/01 01:09:08;;;;;;;6.13;3.83;;;12.30;70.40;;;;;;5038618;28;20424;-76
2021/06/01 01:11:40;;;;;;;5.53;3.90;;;12.30;70.20;;;;;;5050922;28;20427;-73
2021/06/01 01:14:27;;;;;;;4.57;3.37;;;12.30;70.10;;;;;;5050837;28;20581;-76
2021/06/01 01:17:00;;;;;;;6.37;3.70;;;12.30;69.20;;;;;;5044827;28;20482;-73
2021/06/01 01:19:50;;;;;;;4.97;3.20;;;12.30;69.10;;;;;;5044151;28;20430;-75
2021/06/01 01:22:18;;;;;;;6.10;3.77;;;12.20;69.50;;;;;;5047319;28;20482;-74
2021/06/01 01:25:05;;;;;;;6.03;3.73;;;12.20;69.70;;;;;;5047802;28;20439;-75
2021/06/01 01:27:58;;;;;;;5.33;3.73;;;12.20;69.90;;;;;;5029610;28;20447;-76
2021/06/01 01:30:28;;;;;;;4.53;3.53;;;12.20;70.10;;;;;;5041401;28;20454;-77
2021/06/01 01:33:01;;;;;;;5.80;3.67;;;12.10;70.20;;;;;;5039133;28;20458;-75
2021/06/01 01:35:30;;;;;;;7.23;3.70;;;12.10;70.40;;;;;;5049473;28;20502;-76
2021/06/01 01:37:59;;;;;;;6.20;3.97;;;12.10;70.10;;;;;;5040923;28;20480;-76
2021/06/01 01:40:26;;;;;;;4.77;3.60;;;12.10;70.50;;;;;;5042736;28;20415;-74
2021/06/01 01:43:01;;;;;;;5.20;3.40;;;12.00;70.50;;;;;;5029687;28;20446;-75
2021/06/01 01:45:33;;;;;;;6.03;4.40;;;12.00;71.10;;;;;;5043836;28;20427;-75
2021/06/01 01:50:48;;;;;;;6.00;4.03;;;11.90;73.60;;;;;;5037151;28;20410;-76
2021/06/01 01:53:15;;;;;;;6.57;3.90;;;11.80;73.70;;;;;;5021972;28;20495;-75
2021/06/01 01:55:46;;;;;;;9.13;3.40;;;11.80;73.70;;;;;;5029303;28;20424;-75
2021/06/01 01:58:13;;;;;;;4.80;3.67;;;11.80;73.20;;;;;;5028505;28;20499;-77
2021/06/01 02:00:40;;;;;;;5.30;3.70;;;11.80;72.60;;;;;;5033403;28;20427;-75
2021/06/01 02:03:08;;;;;;;4.60;3.40;;;11.70;72.10;;;;;;5042748;28;20956;-75
2021/06/01 02:05:35;;;;;;;4.80;3.70;;;11.70;72.00;;;;;;5029556;28;20503;-77
2021/06/01 02:08:01;;;;;;;5.60;3.77;;;11.60;71.80;;;;;;5042269;28;20435;-76
2021/06/01 02:10:27;;;;;;;3.67;3.30;;;11.60;72.10;;;;;;5036514;28;20438;-75
2021/06/01 02:12:53;;;;;;;6.00;3.80;;;11.60;72.40;;;;;;5035720;28;20968;-75
2021/06/01 02:15:19;;;;;;;4.30;3.50;;;11.60;72.60;;;;;;5040176;28;20200;-76
2021/06/01 02:17:45;;;;;;;4.97;3.50;;;11.60;73.00;;;;;;5041629;28;20292;-76
2021/06/01 02:20:14;;;;;;;5.47;3.27;;;11.60;73.00;;;;;;5028812;28;20432;-75
2021/06/01 02:25:30;;;;;;;5.40;3.70;;;11.60;72.90;;;;;;5041094;28;20411;-77
2021/06/01 02:28:37;;;;;;;4.33;3.30;;;11.50;72.60;;;;;;5042246;28;20999;-75
2021/06/01 02:31:05;;;;;;;5.67;3.60;;;11.40;72.90;;;;;;5031981;28;21024;-76
2021/06/01 02:33:35;;;;;;;5.70;3.80;;;11.40;73.30;;;;;;5045459;28;20434;-75
2021/06/01 02:36:02;;;;;;;7.50;3.40;;;11.40;73.90;;;;;;5037714;28;20429;-77
2021/06/01 02:38:33;;;;;;;4.53;3.80;;;11.40;73.30;;;;;;5051875;28;20541;-75
2021/06/01 02:41:04;;;;;;;5.00;3.57;;;11.40;74.30;;;;;;5052214;28;20968;-75
2021/06/01 02:43:30;;;;;;;6.97;4.40;;;11.40;76.10;;;;;;5039158;28;20991;-75
2021/06/01 02:45:56;;;;;;;7.63;4.43;;;11.30;76.70;;;;;;5041349;28;20419;-75
2021/06/01 02:48:23;;;;;;;8.77;5.10;;;11.30;77.60;;;;;;5040208;28;20454;-74
2021/06/01 02:50:52;;;;;;;6.40;4.20;;;11.20;77.60;;;;;;5032112;28;20442;-76
2021/06/01 02:53:20;;;;;;;6.80;4.43;;;11.10;77.80;;;;;;5021842;28;20453;-76
2021/06/01 02:55:46;;;;;;;6.00;4.30;;;11.10;77.70;;;;;;5052929;28;20426;-78
2021/06/01 02:58:13;;;;;;;6.47;4.00;;;11.10;78.60;;;;;;5051029;28;20470;-74
2021/06/01 03:00:41;;;;;;;6.83;4.07;;;11.00;77.70;;;;;;5040044;28;20423;-77
2021/06/01 03:03:10;;;;;;;5.70;3.50;;;11.00;77.40;;;;;;5051836;28;20431;-75
2021/06/01 03:05:36;;;;;;;4.30;3.63;;;11.00;77.30;;;;;;5042465;28;20506;-79
2021/06/01 03:08:28;;;;;;;7.70;3.30;;;11.00;76.80;;;;;;5052434;28;20473;-77
2021/06/01 03:11:00;;;;;;;6.13;3.73;;;11.00;76.70;;;;;;5039091;28;20420;-76
2021/06/01 03:13:26;;;;;;;6.00;3.70;;;11.00;76.50;;;;;;5045790;28;20416;-76
2021/06/01 03:15:53;;;;;;;4.57;3.13;;;11.00;76.20;;;;;;5032618;28;20485;-75
2021/06/01 03:18:19;;;;;;;5.70;4.10;;;11.00;76.40;;;;;;5038488;28;20528;-77
2021/06/01 03:20:45;;;;;;;4.93;2.90;;;11.00;76.10;;;;;;5036546;28;20431;-76
2021/06/01 03:23:11;;;;;;;5.83;3.40;;;11.00;75.80;;;;;;5032310;28;20980;-76
2021/06/01 03:25:37;;;;;;;4.97;4.00;;;11.00;75.80;;;;;;5030838;28;20443;-76
2021/06/01 03:28:04;;;;;;;5.83;3.90;;;11.10;75.70;;;;;;5031976;28;20439;-76
2021/06/01 03:30:29;;;;;;;8.97;4.40;;;11.00;76.20;;;;;;5032376;28;20993;-75
2021/06/01 03:32:56;;;;;;;6.23;4.30;;;11.00;77.80;;;;;;5041341;28;20442;-73
2021/06/01 03:35:23;;;;;;;5.60;3.63;;;11.00;78.00;;;;;;5044961;28;20429;-76
2021/06/01 03:37:50;;;;;;;5.07;3.27;;;10.90;77.30;;;;;;5039242;28;20471;-74
2021/06/01 03:40:16;;;;;;;6.73;3.70;;;10.90;77.00;;;;;;5049407;28;20450;-75
2021/06/01 03:42:42;;;;;;;4.50;3.40;;;10.90;77.00;;;;;;5031364;28;20447;-76
2021/06/01 03:45:09;;;;;;;5.77;3.83;;;10.90;77.00;;;;;;5033762;28;20428;-76
2021/06/01 03:47:34;;;;;;;6.90;3.77;;;10.90;76.80;;;;;;5041209;28;20822;-78
2021/06/01 03:50:00;;;;;;;6.77;4.00;;;10.90;77.10;;;;;;5044468;28;20430;-76
2021/06/01 03:52:26;;;;;;;8.13;4.10;;;10.90;77.30;;;;;;5024160;28;20189;-75
2021/06/01 03:54:52;;;;;;;5.90;3.63;;;11.00;77.00;;;;;;5026309;28;20188;-75
2021/06/01 03:57:17;;;;;;;5.93;3.50;;;11.00;76.80;;;;;;5038865;28;20295;-76
2021/06/01 03:59:43;;;;;;;8.40;4.07;;;11.00;76.70;;;;;;5031874;28;20269;-76
2021/06/01 04:02:09;;;;;;;6.00;3.67;;;11.00;76.40;;;;;;5030033;28;20516;-76
2021/06/01 04:04:36;;;;;;;6.23;4.20;;;11.00;76.20;;;;;;5045374;28;20185;-76
2021/06/01 04:07:04;;;;;;;7.60;4.00;;;11.00;78.40;;;;;;5051381;28;20200;-77
2021/06/01 04:09:29;;;;;;;6.70;4.30;;;10.90;78.60;;;;;;5050487;28;20423;-76
2021/06/01 04:11:55;;;;;;;6.60;3.83;;;10.90;78.10;;;;;;5042686;28;20432;-76
2021/06/01 04:14:21;;;;;;;6.50;4.50;;;10.90;77.80;;;;;;5042492;28;20207;-76
2021/06/01 04:16:47;;;;;;;9.27;4.10;;;11.00;77.70;;;;;;5031356;28;20448;-75
2021/06/01 04:19:14;;;;;;;7.60;4.40;;;11.00;77.80;;;;;;5042738;28;20204;-76
2021/06/01 04:21:42;;;;;;;7.23;4.50;;;11.10;77.40;;;;;;5039586;28;20211;-77
2021/06/01 04:24:08;;;;;;;7.93;4.93;;;11.10;77.40;;;;;;5050028;28;20422;-76
2021/06/01 04:26:34;;;;;;;9.83;5.20;;;11.10;77.10;;;;;;5049326;28;20508;-75
2021/06/01 04:29:00;;;;;;;10.70;5.30;;;11.10;77.40;;;;;;5047965;28;20519;-77
2021/06/01 04:31:26;;;;;;;8.87;4.90;;;11.10;77.40;;;;;;5039896;28;20211;-76
2021/06/01 04:33:52;;;;;;;10.73;5.60;;;11.00;78.30;;;;;;5048922;28;20203;-76
2021/06/01 04:36:17;;;;;;;8.77;5.83;;;10.90;78.70;;;;;;5050904;28;20212;-76
2021/06/01 04:38:43;;;;;;;7.67;5.03;;;11.00;78.90;;;;;;5047143;28;20248;-73
2021/06/01 04:41:09;;;;;;;7.73;4.20;;;11.00;78.90;;;;;;5031397;28;20347;-75
2021/06/01 04:43:34;;;;;;;8.20;4.70;;;11.00;78.90;;;;;;5033223;28;20270;-74
2021/06/01 04:46:01;;;;;;;5.50;4.23;;;11.10;78.90;;;;;;5041703;28;20240;-75
2021/06/01 04:48:26;;;;;;;6.00;3.97;;;11.30;78.40;;;;;;5048976;28;20234;-74
2021/06/01 04:50:52;;;;;;;7.80;4.50;;;11.40;78.10;;;;;;5042717;28;20432;-74
2021/06/01 04:53:18;;;;;;;7.13;4.27;;;11.50;77.70;;;;;;5032812;28;20189;-75
2021/06/01 04:55:44;;;;;;;11.17;4.80;;;11.60;77.30;;;;;;5043499;28;20655;-74
2021/06/01 04:58:09;;;;;;;7.70;5.00;;;11.60;76.70;;;;;;5048963;28;20258;-74
2021/06/01 05:00:35;;;;;;;8.40;5.63;;;11.80;75.10;;;;;;5042445;28;20189;-75
2021/06/01 05:03:01;;;;;;;7.87;4.43;;;11.70;75.10;;;;;;5034602;28;20196;-74
2021/06/01 05:05:27;;;;;;;9.00;5.30;;;11.70;75.40;;;;;;5049400;28;20551;-74
2021/06/01 05:07:54;;;;;;;6.80;4.73;;;11.80;75.80;;;;;;5048631;28;20584;-75
2021/06/01 05:10:20;;;;;;;7.13;4.93;;;11.80;76.10;;;;;;5047795;28;20750;-74
2021/06/01 05:12:46;;;;;;;13.53;5.00;;;11.90;75.70;;;;;;5030557;28;20547;-75
2021/06/01 05:15:12;;;;;;;10.17;6.07;;;11.90;75.50;;;;;;5030607;28;21374;-76
2021/06/01 05:17:40;;;;;;;9.07;5.03;;;11.90;75.20;;;;;;5044968;28;20208;-76
2021/06/01 05:20:06;;;;;;;8.03;5.47;;;12.00;75.20;;;;;;5049583;28;20419;-76
2021/06/01 05:22:32;;;;;;;10.40;5.77;;;12.00;75.10;;;;;;5049587;28;20447;-78
2021/06/01 05:24:58;;;;;;;10.80;6.07;;;12.10;74.90;;;;;;5041597;28;20502;-77
2021/06/01 05:27:23;;;;;;;8.10;5.60;;;12.20;75.20;;;;;;5016272;28;20206;-76
2021/06/01 05:29:54;;;;;;;10.03;6.30;;;12.20;75.10;;;;;;5037200;28;20258;-76
2021/06/01 05:35:16;;;;;;;10.83;5.50;;;12.30;74.80;;;;;;5050923;28;20511;-75
2021/06/01 05:37:42;;;;;;;8.47;5.60;;;12.30;75.10;;;;;;5016730;28;20479;-76
2021/06/01 05:40:08;;;;;;;12.27;6.07;;;12.40;74.90;;;;;;5030386;28;20779;-77
2021/06/01 05:42:34;;;;;;;11.37;6.40;;;12.50;74.90;;;;;;5049663;28;20207;-78
2021/06/01 05:44:59;;;;;;;15.30;7.40;;;12.50;74.80;;;;;;5035337;28;20933;-77
2021/06/01 05:47:25;;;;;;;14.97;6.77;;;12.60;75.50;;;;;;5037625;28;20211;-76
2021/06/01 05:49:51;;;;;;;12.90;6.60;;;12.80;75.50;;;;;;5037660;28;20679;-75
2021/06/01 05:52:16;;;;;;;17.37;8.73;;;12.90;75.40;;;;;;5045987;28;20209;-75
2021/06/01 05:54:42;;;;;;;11.80;7.70;;;12.90;75.10;;;;;;5040102;28;20193;-77
2021/06/01 05:57:08;;;;;;;15.83;8.10;;;13.00;74.90;;;;;;5043355;28;20221;-75
2021/06/01 05:59:34;;;;;;;9.77;7.17;;;13.20;74.60;;;;;;5043221;28;20196;-79
2021/06/01 06:02:00;;;;;;;19.23;8.50;;;13.40;73.70;;;;;;5053558;28;20860;-77
2021/06/01 06:04:25;;;;;;;13.80;7.10;;;13.60;72.70;;;;;;5045721;28;20605;-76
2021/06/01 06:06:51;;;;;;;13.60;7.57;;;13.60;72.70;;;;;;5048188;28;20288;-77
2021/06/01 06:09:18;;;;;;;11.90;7.40;;;13.70;72.60;;;;;;5045699;28;20603;-77
2021/06/01 06:11:43;;;;;;;16.40;7.63;;;13.80;72.30;;;;;;5044335;28;20449;-78
2021/06/01 06:14:09;;;;;;;18.50;8.70;;;14.00;71.00;;;;;;5054783;28;20918;-75
2021/06/01 06:16:45;;;;;;;17.00;8.20;;;14.10;70.50;;;;;;5034485;28;20296;-76
2021/06/01 06:19:11;;;;;;;15.80;8.27;;;14.20;69.80;;;;;;5034054;28;20219;-76
2021/06/01 06:21:36;;;;;;;17.97;8.90;;;14.20;69.50;;;;;;5040318;28;20419;-76
2021/06/01 06:24:04;;;;;;;13.10;8.07;;;14.30;69.50;;;;;;5049398;28;20219;-77
2021/06/01 06:26:30;;;;;;;18.27;7.97;;;14.40;69.70;;;;;;5033522;28;20231;-75
2021/06/01 06:28:55;;;;;;;11.67;7.07;;;14.50;69.10;;;;;;5032576;28;20412;-76
2021/06/01 06:31:21;;;;;;;19.23;8.67;;;14.60;68.60;;;;;;5038079;28;20212;-76
2021/06/01 06:33:47;;;;;;;16.73;8.80;;;14.70;67.50;;;;;;5054277;28;20754;-76
2021/06/01 06:36:13;;;;;;;18.13;9.30;;;14.80;67.20;;;;;;5056968;28;20247;-77
2021/06/01 06:38:41;;;;;;;17.90;9.30;;;14.80;66.90;;;;;;5043741;28;20233;-75
2021/06/01 06:43:37;;;;;;;16.33;8.97;;;15.00;66.40;;;;;;5037187;28;20424;-75
2021/06/01 06:46:06;;;;;;;20.47;10.33;;;15.20;65.70;;;;;;5044040;28;20203;-76
2021/06/01 06:48:32;;;;;;;23.53;9.93;;;15.10;65.70;;;;;;5039439;28;20431;-76
2021/06/01 06:51:01;;;;;;;17.30;9.20;;;15.20;65.80;;;;;;5041256;28;20440;-76
2021/06/01 06:53:27;;;;;;;22.30;10.50;;;15.40;65.40;;;;;;5019410;28;20431;-77
2021/06/01 06:55:53;;;;;;;16.37;9.17;;;15.50;65.30;;;;;;5032691;28;20485;-76
2021/06/01 06:58:19;;;;;;;23.90;9.73;;;15.50;63.80;;;;;;5048553;28;20728;-75
2021/06/01 07:00:45;;;;;;;16.20;8.43;;;15.60;63.50;;;;;;5036282;28;20177;-76
2021/06/01 07:03:10;;;;;;;11.57;7.30;;;15.70;62.80;;;;;;5045985;28;20427;-77
2021/06/01 07:05:36;;;;;;;8.10;5.40;;;15.90;61.00;;;;;;5041336;28;20192;-76
2021/06/01 07:08:02;;;;;;;8.83;5.17;;;16.10;56.60;;;;;;5050840;28;20587;-76
2021/06/01 07:10:28;;;;;;;10.60;4.83;;;16.30;56.90;;;;;;5042508;28;20200;-75
2021/06/01 07:12:54;;;;;;;9.50;4.60;;;16.40;55.20;;;;;;5045568;28;20615;-76
2021/06/01 07:15:22;;;;;;;8.23;5.20;;;16.50;55.00;;;;;;5031734;28;20211;-76
2021/06/01 07:17:54;;;;;;;13.87;4.30;;;16.70;54.50;;;;;;5034798;28;20745;-77
2021/06/01 07:20:20;;;;;;;11.07;5.30;;;16.80;53.40;;;;;;5040425;28;20542;-76
2021/06/01 07:22:46;;;;;;;5.70;4.43;;;17.00;54.20;;;;;;5035705;28;20543;-75
2021/06/01 07:25:12;;;;;;;7.47;4.50;;;17.00;53.30;;;;;;5039303;28;21320;-76
2021/06/01 07:27:38;;;;;;;9.70;4.50;;;17.10;52.50;;;;;;5031288;28;20680;-76
2021/06/01 07:30:06;;;;;;;8.67;4.17;;;17.20;51.80;;;;;;5042163;28;20887;-76
2021/06/01 07:32:32;;;;;;;5.37;4.20;;;17.30;51.40;;;;;;5033147;28;20810;-76
2021/06/01 07:34:59;;;;;;;6.40;4.20;;;17.50;50.90;;;;;;5030795;28;20436;-75
2021/06/01 07:37:25;;;;;;;6.97;4.03;;;17.60;50.20;;;;;;5045402;28;20202;-76
2021/06/01 07:39:50;;;;;;;5.27;3.70;;;17.60;50.30;;;;;;5042023;28;20427;-77
2021/06/01 07:42:16;;;;;;;8.80;3.90;;;17.70;50.50;;;;;;5039216;28;20367;-77
2021/06/01 07:44:42;;;;;;;10.97;4.17;;;17.80;49.70;;;;;;5040811;28;20182;-76
2021/06/01 07:47:07;;;;;;;6.50;4.10;;;17.90;48.90;;;;;;5030367;28;20219;-77
2021/06/01 07:49:33;;;;;;;5.50;3.93;;;18.00;48.60;;;;;;5041707;28;20204;-75
2021/06/01 07:51:59;;;;;;;9.50;4.20;;;18.00;48.70;;;;;;5032013;28;20260;-74
2021/06/01 07:54:25;;;;;;;6.77;4.20;;;18.00;48.60;;;;;;5040510;28;20801;-76
2021/06/01 07:56:50;;;;;;;9.63;3.50;;;18.10;47.70;;;;;;5033626;28;20202;-76
2021/06/01 07:59:16;;;;;;;7.30;4.17;;;18.10;47.90;;;;;;5039933;28;20173;-75
2021/06/01 08:01:43;;;;;;;4.70;3.63;;;18.20;47.00;;;;;;5041176;28;20185;-77
2021/06/01 08:04:09;;;;;;;5.93;4.30;;;18.20;47.10;;;;;;5031219;28;20213;-77
2021/06/01 08:06:36;;;;;;;6.70;3.50;;;18.30;46.20;;;;;;5031213;28;20448;-77
2021/06/01 08:09:05;;;;;;;7.07;3.90;;;18.40;45.90;;;;;;5041914;28;20423;-77
2021/06/01 08:11:31;;;;;;;5.83;3.67;;;18.40;45.50;;;;;;5044208;28;21015;-76
2021/06/01 08:13:57;;;;;;;4.70;3.80;;;18.50;45.00;;;;;;5042717;28;20473;-77
2021/06/01 08:16:22;;;;;;;6.67;4.20;;;18.50;45.30;;;;;;5034333;28;20302;-76
2021/06/01 08:19:03;;;;;;;6.37;3.97;;;18.60;45.80;;;;;;5039953;28;20218;-77
2021/06/01 08:21:44;;;;;;;6.00;3.50;;;18.70;44.20;;;;;;5037487;28;20205;-78
2021/06/01 08:24:10;;;;;;;5.63;4.00;;;18.70;44.20;;;;;;5052037;28;20430;-75
2021/06/01 08:26:36;;;;;;;5.63;3.37;;;18.80;44.90;;;;;;5050153;28;20431;-77
2021/06/01 08:29:03;;;;;;;6.40;4.50;;;18.80;44.20;;;;;;5040062;28;20191;-77
2021/06/01 08:31:28;;;;;;;4.67;4.37;;;18.80;44.50;;;;;;5040246;28;20215;-73
2021/06/01 08:33:54;;;;;;;5.83;3.60;;;19.00;44.30;;;;;;5032871;28;20436;-76
2021/06/01 08:36:20;;;;;;;6.47;3.73;;;19.10;42.80;;;;;;5032076;28;20219;-77
2021/06/01 08:38:45;;;;;;;10.37;4.47;;;19.10;41.40;;;;;;5042674;28;20231;-77
2021/06/01 08:41:17;;;;;;;4.67;3.63;;;19.10;42.20;;;;;;5039981;28;20231;-76
2021/06/01 08:43:43;;;;;;;8.03;3.90;;;19.20;42.30;;;;;;5036202;28;20276;-76
2021/06/01 08:46:10;;;;;;;4.50;3.70;;;19.20;42.30;;;;;;5053600;28;20426;-76
2021/06/01 08:48:37;;;;;;;13.43;4.23;;;19.20;40.00;;;;;;5044246;28;20424;-77
2021/06/01 08:51:03;;;;;;;7.77;3.37;;;19.30;39.80;;;;;;5037042;28;20447;-76
2021/06/01 08:53:29;;;;;;;3.53;3.30;;;19.30;39.00;;;;;;5033284;28;20445;-77
2021/06/01 08:55:55;;;;;;;8.43;3.47;;;19.40;39.00;;;;;;5043755;28;20420;-76
2021/06/01 08:58:22;;;;;;;7.40;3.87;;;19.50;39.10;;;;;;5036562;28;20291;-77
2021/06/01 09:00:49;;;;;;;4.47;3.00;;;19.60;38.80;;;;;;5043763;28;20428;-77
2021/06/01 09:03:22;;;;;;;7.13;3.20;;;19.50;38.70;;;;;;5038512;28;20859;-76
2021/06/01 09:22:34;;;;;;;6.00;3.77;;;19.80;39.00;;;;;;5044802;28;20780;-75
2021/06/01 09:25:14;;;;;;;5.40;3.63;;;19.90;39.00;;;;;;5015651;28;20923;-77
2021/06/01 09:27:58;;;;;;;6.90;3.10;;;20.00;38.60;;;;;;5045359;28;20450;-75
2021/06/01 09:30:55;;;;;;;5.50;3.47;;;20.20;37.90;;;;;;5050113;28;20783;-77
2021/06/01 09:33:20;;;;;;;5.30;3.50;;;20.20;35.90;;;;;;5037834;28;20475;-77
2021/06/01 09:36:05;;;;;;;6.00;3.60;;;20.30;35.70;;;;;;5030845;28;20461;-76
2021/06/01 09:38:44;;;;;;;3.77;2.90;;;20.30;36.00;;;;;;5042111;28;20246;-76
2021/06/01 09:41:12;;;;;;;3.53;3.00;;;20.30;36.80;;;;;;5040373;28;21140;-78
2021/06/01 09:43:57;;;;;;;6.00;3.70;;;20.40;36.80;;;;;;5029947;28;20436;-76
2021/06/01 09:46:32;;;;;;;6.63;3.67;;;20.30;37.00;;;;;;5035261;28;20958;-74
2021/06/01 09:49:13;;;;;;;4.80;3.60;;;20.30;36.60;;;;;;5017999;28;20792;-76
2021/06/01 09:51:51;;;;;;;6.10;3.50;;;20.30;36.60;;;;;;5030476;28;20862;-76
2021/06/01 09:54:44;;;;;;;8.40;3.53;;;20.50;37.00;;;;;;5028796;28;20436;-76
2021/06/01 09:57:19;;;;;;;5.97;3.77;;;20.60;35.90;;;;;;5024402;28;20841;-75
2021/06/01 10:00:12;;;;;;;4.80;3.23;;;20.70;36.40;;;;;;5050290;28;20434;-75
2021/06/01 10:02:38;;;;;;;3.73;3.10;;;20.80;37.20;;;;;;5038449;28;20452;-78
2021/06/01 10:05:18;;;;;;;4.53;3.43;;;20.90;35.70;;;;;;5023753;28;20430;-78
2021/06/01 10:07:45;;;;;;;4.90;3.70;;;21.00;36.30;;;;;;5026657;28;20440;-76
2021/06/01 10:10:28;;;;;;;6.57;3.87;;;21.10;36.30;;;;;;5041993;28;20507;-75
2021/06/01 10:12:57;;;;;;;4.43;3.30;;;21.30;35.60;;;;;;5049124;28;20420;-77
2021/06/01 10:15:25;;;;;;;6.67;3.80;;;21.60;35.20;;;;;;5039917;28;20426;-77
2021/06/01 10:17:51;;;;;;;5.73;3.40;;;22.00;35.20;;;;;;5030204;28;20470;-75
2021/06/01 10:20:21;;;;;;;6.63;4.13;;;22.30;35.20;;;;;;5018057;28;20474;-76
2021/06/01 10:22:47;;;;;;;4.80;3.87;;;22.30;33.70;;;;;;5046312;28;20432;-78
2021/06/01 10:25:15;;;;;;;4.60;3.43;;;22.20;34.00;;;;;;5050210;28;20434;-77
2021/06/01 10:27:43;;;;;;;5.40;3.77;;;22.30;34.30;;;;;;5045425;28;20619;-77
2021/06/01 10:30:10;;;;;;;5.03;3.57;;;22.40;34.00;;;;;;5043008;28;20462;-77
2021/06/01 10:32:54;;;;;;;5.20;3.17;;;22.40;33.50;;;;;;5050976;28;20503;-79
2021/06/01 10:35:23;;;;;;;5.50;4.20;;;22.30;33.50;;;;;;5041989;28;20430;-76
2021/06/01 10:51:58;;;;;;;6.77;3.60;;;23.50;32.80;;;;;;5052316;28;21023;-77
2021/06/01 10:54:44;;;;;;;6.03;4.13;;;23.70;32.00;;;;;;5030724;28;20436;-76
2021/06/01 10:57:12;;;;;;;8.20;3.83;;;23.70;31.60;;;;;;5039026;28;20444;-75
2021/06/01 11:02:28;;;;;;;6.83;3.60;;;23.30;32.50;;;;;;5035434;28;20436;-76
2021/06/01 11:04:59;;;;;;;7.17;3.60;;;23.50;32.00;;;;;;5041184;28;20863;-77
2021/06/01 11:07:41;;;;;;;4.90;3.63;;;23.70;31.30;;;;;;5041924;28;20222;-76
2021/06/01 11:10:07;;;;;;;5.30;3.90;;;23.70;30.80;;;;;;5023832;28;20427;-76
2021/06/01 11:12:36;;;;;;;4.40;3.77;;;23.50;31.20;;;;;;5036889;28;20422;-76
2021/06/01 11:15:26;;;;;;;3.77;3.03;;;23.50;30.70;;;;;;5046680;28;20929;-78
2021/06/01 11:17:52;;;;;;;5.00;3.23;;;23.10;30.10;;;;;;5060842;28;20895;-77
2021/06/01 11:20:39;;;;;;;4.90;3.20;;;22.80;31.20;;;;;;5036448;28;20460;-77
2021/06/01 11:23:22;;;;;;;6.60;4.37;;;23.10;31.50;;;;;;5035007;28;20441;-75
2021/06/01 11:33:51;;;;;;;4.33;3.20;;;24.20;30.10;;;;;;5055395;28;20441;-77
2021/06/01 11:36:18;;;;;;;4.30;3.10;;;24.10;29.70;;;;;;5050198;28;20423;-78
2021/06/01 11:39:00;;;;;;;4.47;3.30;;;23.80;29.80;;;;;;5052053;28;20606;-76
2021/06/01 11:44:18;;;;;;;4.70;3.30;;;23.70;30.10;;;;;;5023988;28;20438;-77
2021/06/01 11:51:59;;;;;;;5.57;3.33;;;24.10;30.90;;;;;;5042894;28;20428;-77
2021/06/01 11:54:24;;;;;;;5.50;3.53;;;24.50;30.40;;;;;;5040398;28;20424;-78
2021/06/01 12:19:08;;;;;;;7.30;3.90;;;25.50;28.50;;;;;;5025121;28;20497;-76
2021/06/01 12:21:38;;;;;;;4.40;3.77;;;25.00;28.70;;;;;;5022282;28;20432;-76
2021/06/01 12:24:25;;;;;;;6.37;3.97;;;24.50;29.60;;;;;;5034764;28;20515;-79
2021/06/01 12:32:34;;;;;;;4.03;3.37;;;24.40;29.10;;;;;;5041369;28;20972;-77
2021/06/01 13:31:40;;;;;;;6.20;3.97;;;28.30;25.40;;;;;;5023996;28;20525;-75
2021/06/01 13:47:19;;;;;;;6.73;3.63;;;29.30;23.90;;;;;;5038019;28;20438;-77
2021/06/01 13:50:01;;;;;;;4.17;3.20;;;29.50;23.50;;;;;;5038185;28;20404;-75
2021/06/01 13:55:05;;;;;;;8.40;3.90;;;28.90;23.60;;;;;;5052270;28;20410;-77
2021/06/01 13:55:28;;;;;;;4.77;3.43;;;28.70;24.20;;;;;;5019992;28;20454;-77
2021/06/01 15:11:22;;;;;;;4.57;4.33;;;31.60;23.30;;;;;;5036535;28;20428;-78
2021/06/01 15:52:06;;;;;;;5.70;4.03;;;32.20;22.50;;;;;;5049487;28;20423;-79
2021/06/01 16:12:07;;;;;;;5.57;3.80;;;31.50;23.60;;;;;;5041640;28;20476;-77
2021/06/01 17:13:38;;;;;;;5.17;3.50;;;26.90;26.00;;;;;;5030958;28;20510;-76
2021/06/01 17:16:05;;;;;;;4.83;3.40;;;26.50;26.70;;;;;;5031252;28;20422;-77
2021/06/01 17:32:23;;;;;;;4.53;3.30;;;25.50;28.80;;;;;;5041011;28;20522;-77
2021/06/01 17:34:59;;;;;;;6.50;3.27;;;25.40;29.10;;;;;;5039548;28;20825;-76
2021/06/01 17:37:26;;;;;;;4.50;3.27;;;25.30;28.90;;;;;;5040990;28;20443;-78
2021/06/01 17:39:53;;;;;;;5.90;4.00;;;25.20;28.90;;;;;;5054397;28;20421;-78
2021/06/01 17:42:21;;;;;;;6.00;3.27;;;25.30;29.20;;;;;;5035078;28;20482;-76
2021/06/01 17:44:48;;;;;;;5.47;3.33;;;25.30;29.40;;;;;;5046250;28;20557;-76
2021/06/01 17:47:19;;;;;;;5.70;3.57;;;25.20;29.10;;;;;;5054607;28;20975;-77
2021/06/01 17:49:54;;;;;;;5.90;4.10;;;25.20;29.40;;;;;;5044666;28;20424;-77
2021/06/01 17:52:28;;;;;;;3.60;3.47;;;25.20;29.10;;;;;;5046154;28;20442;-77
2021/06/01 17:54:55;;;;;;;6.43;4.00;;;25.20;29.30;;;;;;5056413;28;20481;-77
2021/06/01 17:57:22;;;;;;;6.57;3.80;;;25.20;29.20;;;;;;5053180;28;20963;-76
2021/06/01 17:59:49;;;;;;;8.10;3.40;;;25.00;29.30;;;;;;5036673;28;20431;-78
2021/06/01 18:02:17;;;;;;;4.70;3.87;;;24.90;29.60;;;;;;5036767;28;20530;-77
2021/06/01 18:04:51;;;;;;;4.73;3.60;;;24.90;29.70;;;;;;5048274;28;20435;-77
2021/06/01 18:07:25;;;;;;;5.20;3.43;;;25.00;29.90;;;;;;5045801;28;20517;-77
2021/06/01 19:51:21;;;;;;;5.50;4.67;;;20.20;43.40;;;;;;5062132;28;20922;-75
2021/06/01 19:53:50;;;;;;;10.27;4.17;;;20.10;43.90;;;;;;5035658;28;20768;-76
2021/06/01 19:56:16;;;;;;;5.37;4.07;;;19.90;44.30;;;;;;5048069;28;20970;-77
2021/06/01 19:58:42;;;;;;;5.30;4.13;;;19.90;44.30;;;;;;5054768;28;20450;-75
2021/06/01 20:01:10;;;;;;;5.70;4.20;;;19.80;44.60;;;;;;5053128;28;20496;-78
2021/06/01 20:03:37;;;;;;;8.10;4.40;;;19.70;45.00;;;;;;5047843;28;20530;-76
2021/06/01 20:06:06;;;;;;;6.30;4.10;;;19.60;45.10;;;;;;5061354;28;20434;-78
2021/06/01 20:08:33;;;;;;;5.23;4.17;;;19.50;45.80;;;;;;5035593;28;20541;-76
2021/06/01 20:10:59;;;;;;;6.50;4.10;;;19.40;45.90;;;;;;5043701;28;20873;-78
2021/06/01 20:13:25;;;;;;;6.83;5.23;;;19.30;46.50;;;;;;5029778;28;20423;-76
2021/06/01 20:15:51;;;;;;;7.40;4.57;;;19.30;46.50;;;;;;5033477;28;20217;-75
2021/06/01 20:18:21;;;;;;;6.27;4.90;;;19.20;46.60;;;;;;5044626;28;20458;-76
2021/06/01 20:20:48;;;;;;;7.77;4.70;;;19.20;46.60;;;;;;5027808;28;20440;-76
2021/06/01 20:23:18;;;;;;;9.03;4.40;;;19.10;46.70;;;;;;5028741;28;20462;-78
2021/06/01 20:25:53;;;;;;;6.23;4.20;;;19.00;47.50;;;;;;5032926;28;20458;-77
2021/06/01 20:28:31;;;;;;;7.40;4.50;;;19.00;47.70;;;;;;5029471;28;20479;-77
2021/06/01 20:31:09;;;;;;;8.30;4.30;;;18.90;47.70;;;;;;5035288;28;20457;-78
2021/06/01 20:33:36;;;;;;;7.80;5.23;;;18.80;48.10;;;;;;5035491;28;20428;-78
2021/06/01 20:36:04;;;;;;;6.90;4.60;;;18.80;48.20;;;;;;5036082;28;21201;-78